Paxton, South Dakota
Current Conditions -  °F | °C
As of 8:53 PM on Tuesday 21 Oct 2014 (Local Time) from KICR Reporting Station
Clear Clear  
Wind Chill: 70°   Ceiling: Unl
Heat Index: 70°   Visibility: 10mi
Dew Point: 48°   Wind: 20mph
Humidity: 46%   Direction: 160°SSE
Pressure: 29.83"   Gusts: 30mph
Location:  43.2341°N, 99.5045°W
Report Text: KICR 220153Z AUTO 16017G26KT 10SM CLR 21/09 A2983 RMK AO2 PK WND 17026/0151 SLP093 T02110089
Loading
Personal Weather Stations






























Interactive Weather Map
Tropical Storm Tracking
New forecast layout! Learn more

10-Day Weather Forecast

Advertisements
Track Severe Weather on mobile